sensor_id;sensor_type;location;lat;lon;timestamp;P1;durP1;ratioP1;P2;durP2;ratioP2
22357;SDS011;11346;50.150;8.150;2022-09-09T00:02:15;5.63;;;1.30;;
22357;SDS011;11346;50.150;8.150;2022-09-09T00:04:48;4.07;;;1.30;;
22357;SDS011;11346;50.150;8.150;2022-09-09T00:07:19;2.87;;;1.30;;
22357;SDS011;11346;50.150;8.150;2022-09-09T00:09:48;5.80;;;1.40;;
22357;SDS011;11346;50.150;8.150;2022-09-09T00:12:18;1.53;;;1.03;;
22357;SDS011;11346;50.150;8.150;2022-09-09T00:14:48;2.43;;;1.37;;
22357;SDS011;11346;50.150;8.150;2022-09-09T00:17:22;9.13;;;1.43;;
22357;SDS011;11346;50.150;8.150;2022-09-09T00:19:55;4.73;;;1.40;;
22357;SDS011;11346;50.150;8.150;2022-09-09T00:22:23;4.23;;;1.53;;
22357;SDS011;11346;50.150;8.150;2022-09-09T00:24:51;3.80;;;1.27;;
22357;SDS011;11346;50.150;8.150;2022-09-09T00:27:22;4.57;;;1.33;;
22357;SDS011;11346;50.150;8.150;2022-09-09T00:29:53;1.90;;;1.23;;
22357;SDS011;11346;50.150;8.150;2022-09-09T00:32:20;2.77;;;1.20;;
22357;SDS011;11346;50.150;8.150;2022-09-09T00:34:48;3.37;;;1.13;;
22357;SDS011;11346;50.150;8.150;2022-09-09T00:37:17;4.13;;;1.23;;
22357;SDS011;11346;50.150;8.150;2022-09-09T00:39:45;3.37;;;1.20;;
22357;SDS011;11346;50.150;8.150;2022-09-09T00:42:14;5.30;;;1.40;;
22357;SDS011;11346;50.150;8.150;2022-09-09T00:44:46;6.80;;;1.30;;
22357;SDS011;11346;50.150;8.150;2022-09-09T00:47:23;1.63;;;1.00;;
22357;SDS011;11346;50.150;8.150;2022-09-09T00:49:58;5.50;;;1.37;;
22357;SDS011;11346;50.150;8.150;2022-09-09T00:52:32;3.93;;;1.50;;
22357;SDS011;11346;50.150;8.150;2022-09-09T00:55:05;2.43;;;1.30;;
22357;SDS011;11346;50.150;8.150;2022-09-09T00:57:35;2.97;;;1.40;;
22357;SDS011;11346;50.150;8.150;2022-09-09T01:00:19;3.77;;;1.30;;
22357;SDS011;11346;50.150;8.150;2022-09-09T01:02:49;1.87;;;1.30;;
22357;SDS011;11346;50.150;8.150;2022-09-09T01:05:20;2.93;;;1.23;;
22357;SDS011;11346;50.150;8.150;2022-09-09T01:07:52;2.60;;;1.30;;
22357;SDS011;11346;50.150;8.150;2022-09-09T01:10:21;3.43;;;1.20;;
22357;SDS011;11346;50.150;8.150;2022-09-09T01:12:52;2.47;;;1.27;;
22357;SDS011;11346;50.150;8.150;2022-09-09T01:15:21;1.30;;;1.20;;
22357;SDS011;11346;50.150;8.150;2022-09-09T01:17:51;2.90;;;1.30;;
22357;SDS011;11346;50.150;8.150;2022-09-09T01:20:20;3.33;;;1.17;;
22357;SDS011;11346;50.150;8.150;2022-09-09T01:22:51;3.17;;;1.13;;
22357;SDS011;11346;50.150;8.150;2022-09-09T01:25:56;3.97;;;1.33;;
22357;SDS011;11346;50.150;8.150;2022-09-09T01:28:26;3.53;;;1.27;;
22357;SDS011;11346;50.150;8.150;2022-09-09T01:30:53;3.67;;;1.27;;
22357;SDS011;11346;50.150;8.150;2022-09-09T01:33:22;3.07;;;1.20;;
22357;SDS011;11346;50.150;8.150;2022-09-09T01:35:50;2.80;;;1.43;;
22357;SDS011;11346;50.150;8.150;2022-09-09T01:38:19;2.50;;;1.20;;
22357;SDS011;11346;50.150;8.150;2022-09-09T01:40:48;6.57;;;1.63;;
22357;SDS011;11346;50.150;8.150;2022-09-09T01:43:17;3.87;;;1.47;;
22357;SDS011;11346;50.150;8.150;2022-09-09T01:45:44;2.67;;;1.50;;
22357;SDS011;11346;50.150;8.150;2022-09-09T01:48:13;5.47;;;1.70;;
22357;SDS011;11346;50.150;8.150;2022-09-09T01:50:40;4.37;;;1.67;;
22357;SDS011;11346;50.150;8.150;2022-09-09T01:53:07;5.70;;;1.80;;
22357;SDS011;11346;50.150;8.150;2022-09-09T01:55:37;7.63;;;1.90;;
22357;SDS011;11346;50.150;8.150;2022-09-09T01:58:19;4.37;;;1.67;;
22357;SDS011;11346;50.150;8.150;2022-09-09T02:00:53;7.57;;;1.97;;
22357;SDS011;11346;50.150;8.150;2022-09-09T02:03:23;4.57;;;2.20;;
22357;SDS011;11346;50.150;8.150;2022-09-09T02:05:54;5.03;;;1.70;;
22357;SDS011;11346;50.150;8.150;2022-09-09T02:08:23;6.87;;;2.10;;
22357;SDS011;11346;50.150;8.150;2022-09-09T02:10:53;4.47;;;1.97;;
22357;SDS011;11346;50.150;8.150;2022-09-09T02:13:23;6.10;;;2.10;;
22357;SDS011;11346;50.150;8.150;2022-09-09T02:15:52;5.87;;;1.90;;
22357;SDS011;11346;50.150;8.150;2022-09-09T02:18:20;3.63;;;1.50;;
22357;SDS011;11346;50.150;8.150;2022-09-09T02:20:49;6.00;;;1.70;;
22357;SDS011;11346;50.150;8.150;2022-09-09T02:23:18;6.10;;;1.50;;
22357;SDS011;11346;50.150;8.150;2022-09-09T02:25:46;2.63;;;1.20;;
22357;SDS011;11346;50.150;8.150;2022-09-09T02:28:13;3.30;;;1.20;;
22357;SDS011;11346;50.150;8.150;2022-09-09T02:30:42;4.47;;;1.33;;
22357;SDS011;11346;50.150;8.150;2022-09-09T02:33:12;2.60;;;1.20;;
22357;SDS011;11346;50.150;8.150;2022-09-09T02:35:40;4.60;;;1.70;;
22357;SDS011;11346;50.150;8.150;2022-09-09T02:38:09;7.50;;;1.87;;
22357;SDS011;11346;50.150;8.150;2022-09-09T02:40:37;3.87;;;1.53;;
22357;SDS011;11346;50.150;8.150;2022-09-09T02:43:04;4.63;;;1.80;;
22357;SDS011;11346;50.150;8.150;2022-09-09T02:45:34;6.57;;;2.10;;
22357;SDS011;11346;50.150;8.150;2022-09-09T02:48:05;3.60;;;1.77;;
22357;SDS011;11346;50.150;8.150;2022-09-09T02:50:35;3.50;;;2.03;;
22357;SDS011;11346;50.150;8.150;2022-09-09T02:53:09;3.83;;;1.80;;
22357;SDS011;11346;50.150;8.150;2022-09-09T02:55:38;5.60;;;2.00;;
22357;SDS011;11346;50.150;8.150;2022-09-09T02:58:08;3.17;;;1.70;;
22357;SDS011;11346;50.150;8.150;2022-09-09T03:00:36;5.23;;;2.00;;
22357;SDS011;11346;50.150;8.150;2022-09-09T03:03:05;4.40;;;1.87;;
22357;SDS011;11346;50.150;8.150;2022-09-09T03:05:33;4.07;;;1.97;;
22357;SDS011;11346;50.150;8.150;2022-09-09T03:08:01;5.73;;;2.20;;
22357;SDS011;11346;50.150;8.150;2022-09-09T03:10:28;2.67;;;1.67;;
22357;SDS011;11346;50.150;8.150;2022-09-09T03:12:55;6.77;;;2.10;;
22357;SDS011;11346;50.150;8.150;2022-09-09T03:15:23;5.03;;;2.00;;
22357;SDS011;11346;50.150;8.150;2022-09-09T03:17:54;7.93;;;1.90;;
22357;SDS011;11346;50.150;8.150;2022-09-09T03:20:23;6.03;;;2.10;;
22357;SDS011;11346;50.150;8.150;2022-09-09T03:22:51;3.63;;;2.00;;
22357;SDS011;11346;50.150;8.150;2022-09-09T03:25:18;4.17;;;2.00;;
22357;SDS011;11346;50.150;8.150;2022-09-09T03:27:45;3.53;;;1.90;;
22357;SDS011;11346;50.150;8.150;2022-09-09T03:30:12;5.00;;;2.33;;
22357;SDS011;11346;50.150;8.150;2022-09-09T03:32:40;6.63;;;1.90;;
22357;SDS011;11346;50.150;8.150;2022-09-09T03:35:07;4.63;;;2.00;;
22357;SDS011;11346;50.150;8.150;2022-09-09T03:37:36;5.27;;;1.97;;
22357;SDS011;11346;50.150;8.150;2022-09-09T03:40:04;3.20;;;2.00;;
22357;SDS011;11346;50.150;8.150;2022-09-09T03:42:31;4.27;;;2.00;;
22357;SDS011;11346;50.150;8.150;2022-09-09T03:44:58;4.00;;;1.80;;
22357;SDS011;11346;50.150;8.150;2022-09-09T03:47:25;4.60;;;2.00;;
22357;SDS011;11346;50.150;8.150;2022-09-09T03:49:54;3.77;;;1.90;;
22357;SDS011;11346;50.150;8.150;2022-09-09T03:52:21;4.63;;;1.90;;
22357;SDS011;11346;50.150;8.150;2022-09-09T03:54:52;6.73;;;2.07;;
22357;SDS011;11346;50.150;8.150;2022-09-09T03:57:20;7.47;;;2.43;;
22357;SDS011;11346;50.150;8.150;2022-09-09T03:59:47;10.37;;;2.30;;
22357;SDS011;11346;50.150;8.150;2022-09-09T04:02:14;6.17;;;2.03;;
22357;SDS011;11346;50.150;8.150;2022-09-09T04:04:41;4.23;;;2.27;;
22357;SDS011;11346;50.150;8.150;2022-09-09T04:07:08;5.60;;;2.17;;
22357;SDS011;11346;50.150;8.150;2022-09-09T04:09:36;7.37;;;2.80;;
22357;SDS011;11346;50.150;8.150;2022-09-09T04:12:05;7.73;;;2.70;;
22357;SDS011;11346;50.150;8.150;2022-09-09T04:14:32;4.43;;;2.57;;
22357;SDS011;11346;50.150;8.150;2022-09-09T04:16:59;4.13;;;3.03;;
22357;SDS011;11346;50.150;8.150;2022-09-09T04:19:31;7.33;;;3.10;;
22357;SDS011;11346;50.150;8.150;2022-09-09T04:21:58;7.10;;;3.37;;
22357;SDS011;11346;50.150;8.150;2022-09-09T04:24:25;3.60;;;3.07;;
22357;SDS011;11346;50.150;8.150;2022-09-09T04:26:54;4.33;;;2.87;;
22357;SDS011;11346;50.150;8.150;2022-09-09T04:29:22;5.30;;;3.80;;
22357;SDS011;11346;50.150;8.150;2022-09-09T04:31:49;6.87;;;2.93;;
22357;SDS011;11346;50.150;8.150;2022-09-09T04:34:17;6.53;;;3.03;;
22357;SDS011;11346;50.150;8.150;2022-09-09T04:36:44;4.77;;;2.90;;
22357;SDS011;11346;50.150;8.150;2022-09-09T04:39:11;6.47;;;3.20;;
22357;SDS011;11346;50.150;8.150;2022-09-09T04:41:38;4.23;;;2.83;;
22357;SDS011;11346;50.150;8.150;2022-09-09T04:44:05;4.07;;;3.03;;
22357;SDS011;11346;50.150;8.150;2022-09-09T04:46:33;7.23;;;3.07;;
22357;SDS011;11346;50.150;8.150;2022-09-09T04:49:00;5.70;;;3.63;;
22357;SDS011;11346;50.150;8.150;2022-09-09T04:51:27;5.60;;;3.07;;
22357;SDS011;11346;50.150;8.150;2022-09-09T04:53:56;4.37;;;3.30;;
22357;SDS011;11346;50.150;8.150;2022-09-09T04:56:23;9.17;;;3.40;;
22357;SDS011;11346;50.150;8.150;2022-09-09T04:58:51;15.43;;;3.80;;
22357;SDS011;11346;50.150;8.150;2022-09-09T05:01:19;6.77;;;3.47;;
22357;SDS011;11346;50.150;8.150;2022-09-09T05:03:48;4.87;;;3.33;;
22357;SDS011;11346;50.150;8.150;2022-09-09T05:06:16;7.00;;;3.67;;
22357;SDS011;11346;50.150;8.150;2022-09-09T05:08:43;4.73;;;3.30;;
22357;SDS011;11346;50.150;8.150;2022-09-09T05:11:14;6.87;;;3.10;;
22357;SDS011;11346;50.150;8.150;2022-09-09T05:13:42;6.17;;;3.50;;
22357;SDS011;11346;50.150;8.150;2022-09-09T05:16:09;7.97;;;3.13;;
22357;SDS011;11346;50.150;8.150;2022-09-09T05:18:36;5.17;;;3.30;;
22357;SDS011;11346;50.150;8.150;2022-09-09T05:21:05;6.17;;;3.03;;
22357;SDS011;11346;50.150;8.150;2022-09-09T05:23:33;8.23;;;2.90;;
22357;SDS011;11346;50.150;8.150;2022-09-09T05:26:00;5.47;;;2.80;;
22357;SDS011;11346;50.150;8.150;2022-09-09T05:28:27;6.30;;;3.07;;
22357;SDS011;11346;50.150;8.150;2022-09-09T05:30:57;4.20;;;2.60;;
22357;SDS011;11346;50.150;8.150;2022-09-09T05:33:25;4.67;;;2.30;;
22357;SDS011;11346;50.150;8.150;2022-09-09T05:35:56;5.17;;;2.70;;
22357;SDS011;11346;50.150;8.150;2022-09-09T05:38:24;5.57;;;2.50;;
22357;SDS011;11346;50.150;8.150;2022-09-09T05:40:51;4.07;;;2.17;;
22357;SDS011;11346;50.150;8.150;2022-09-09T05:43:19;3.33;;;2.40;;
22357;SDS011;11346;50.150;8.150;2022-09-09T05:45:46;5.33;;;2.13;;
22357;SDS011;11346;50.150;8.150;2022-09-09T05:48:13;4.87;;;2.20;;
22357;SDS011;11346;50.150;8.150;2022-09-09T05:50:41;5.17;;;2.80;;
22357;SDS011;11346;50.150;8.150;2022-09-09T05:53:10;4.17;;;2.30;;
22357;SDS011;11346;50.150;8.150;2022-09-09T05:55:38;5.67;;;2.60;;
22357;SDS011;11346;50.150;8.150;2022-09-09T05:58:07;4.23;;;2.60;;
22357;SDS011;11346;50.150;8.150;2022-09-09T06:00:35;7.70;;;2.60;;
22357;SDS011;11346;50.150;8.150;2022-09-09T06:03:02;5.53;;;2.17;;
22357;SDS011;11346;50.150;8.150;2022-09-09T06:05:29;4.40;;;2.37;;
22357;SDS011;11346;50.150;8.150;2022-09-09T06:07:56;4.07;;;2.40;;
22357;SDS011;11346;50.150;8.150;2022-09-09T06:10:24;5.30;;;2.17;;
22357;SDS011;11346;50.150;8.150;2022-09-09T06:12:53;5.67;;;2.17;;
22357;SDS011;11346;50.150;8.150;2022-09-09T06:15:20;3.23;;;1.90;;
22357;SDS011;11346;50.150;8.150;2022-09-09T06:17:47;3.20;;;2.27;;
22357;SDS011;11346;50.150;8.150;2022-09-09T06:20:20;3.63;;;2.10;;
22357;SDS011;11346;50.150;8.150;2022-09-09T06:22:47;3.97;;;2.30;;
22357;SDS011;11346;50.150;8.150;2022-09-09T06:25:14;4.67;;;2.10;;
22357;SDS011;11346;50.150;8.150;2022-09-09T06:27:43;6.27;;;2.30;;
22357;SDS011;11346;50.150;8.150;2022-09-09T06:30:16;7.77;;;2.37;;
22357;SDS011;11346;50.150;8.150;2022-09-09T06:32:43;5.23;;;1.97;;
22357;SDS011;11346;50.150;8.150;2022-09-09T06:35:10;4.47;;;2.20;;
22357;SDS011;11346;50.150;8.150;2022-09-09T06:37:38;3.87;;;2.00;;
22357;SDS011;11346;50.150;8.150;2022-09-09T06:40:06;3.67;;;1.90;;
22357;SDS011;11346;50.150;8.150;2022-09-09T06:42:33;4.80;;;1.90;;
22357;SDS011;11346;50.150;8.150;2022-09-09T06:45:00;5.77;;;2.10;;
22357;SDS011;11346;50.150;8.150;2022-09-09T06:47:29;6.63;;;2.53;;
22357;SDS011;11346;50.150;8.150;2022-09-09T06:49:56;5.77;;;2.20;;
22357;SDS011;11346;50.150;8.150;2022-09-09T06:52:23;4.33;;;1.97;;
22357;SDS011;11346;50.150;8.150;2022-09-09T06:54:50;4.83;;;1.93;;
22357;SDS011;11346;50.150;8.150;2022-09-09T06:57:18;6.57;;;1.97;;
22357;SDS011;11346;50.150;8.150;2022-09-09T06:59:45;4.40;;;2.13;;
22357;SDS011;11346;50.150;8.150;2022-09-09T07:02:12;2.93;;;2.00;;
22357;SDS011;11346;50.150;8.150;2022-09-09T07:04:40;4.80;;;2.27;;
22357;SDS011;11346;50.150;8.150;2022-09-09T07:07:08;6.03;;;2.80;;
22357;SDS011;11346;50.150;8.150;2022-09-09T07:09:37;5.00;;;2.20;;
22357;SDS011;11346;50.150;8.150;2022-09-09T07:12:04;5.10;;;2.33;;
22357;SDS011;11346;50.150;8.150;2022-09-09T07:14:32;5.83;;;3.03;;
22357;SDS011;11346;50.150;8.150;2022-09-09T07:16:59;7.53;;;2.83;;
22357;SDS011;11346;50.150;8.150;2022-09-09T07:19:26;2.93;;;2.40;;
22357;SDS011;11346;50.150;8.150;2022-09-09T07:21:54;9.77;;;2.50;;
22357;SDS011;11346;50.150;8.150;2022-09-09T07:24:21;7.37;;;2.63;;
22357;SDS011;11346;50.150;8.150;2022-09-09T07:26:48;6.43;;;2.80;;
22357;SDS011;11346;50.150;8.150;2022-09-09T07:29:17;5.90;;;2.70;;
22357;SDS011;11346;50.150;8.150;2022-09-09T07:31:44;8.27;;;2.73;;
22357;SDS011;11346;50.150;8.150;2022-09-09T07:34:11;3.57;;;3.00;;
22357;SDS011;11346;50.150;8.150;2022-09-09T07:36:39;5.53;;;2.80;;
22357;SDS011;11346;50.150;8.150;2022-09-09T07:39:09;9.57;;;2.70;;
22357;SDS011;11346;50.150;8.150;2022-09-09T07:41:37;7.40;;;2.40;;
22357;SDS011;11346;50.150;8.150;2022-09-09T07:44:05;3.63;;;2.40;;
22357;SDS011;11346;50.150;8.150;2022-09-09T07:46:32;6.27;;;2.87;;
22357;SDS011;11346;50.150;8.150;2022-09-09T07:49:00;5.67;;;2.40;;
22357;SDS011;11346;50.150;8.150;2022-09-09T07:51:27;5.10;;;2.47;;
22357;SDS011;11346;50.150;8.150;2022-09-09T07:53:55;3.93;;;1.83;;
22357;SDS011;11346;50.150;8.150;2022-09-09T07:56:25;6.47;;;3.27;;
22357;SDS011;11346;50.150;8.150;2022-09-09T07:58:53;4.87;;;2.10;;
22357;SDS011;11346;50.150;8.150;2022-09-09T08:01:21;6.20;;;2.50;;
22357;SDS011;11346;50.150;8.150;2022-09-09T08:03:52;7.30;;;2.20;;
22357;SDS011;11346;50.150;8.150;2022-09-09T08:06:19;5.57;;;2.43;;
22357;SDS011;11346;50.150;8.150;2022-09-09T08:08:49;4.93;;;2.23;;
22357;SDS011;11346;50.150;8.150;2022-09-09T08:11:16;3.30;;;2.07;;
22357;SDS011;11346;50.150;8.150;2022-09-09T08:13:45;4.40;;;2.07;;
22357;SDS011;11346;50.150;8.150;2022-09-09T08:16:13;4.47;;;2.50;;
22357;SDS011;11346;50.150;8.150;2022-09-09T08:18:41;5.90;;;2.30;;
22357;SDS011;11346;50.150;8.150;2022-09-09T08:21:08;5.37;;;2.47;;
22357;SDS011;11346;50.150;8.150;2022-09-09T08:23:36;6.17;;;1.97;;
22357;SDS011;11346;50.150;8.150;2022-09-09T08:26:04;5.00;;;2.30;;
22357;SDS011;11346;50.150;8.150;2022-09-09T08:28:31;6.83;;;2.00;;
22357;SDS011;11346;50.150;8.150;2022-09-09T08:31:06;5.13;;;2.07;;
22357;SDS011;11346;50.150;8.150;2022-09-09T08:33:33;6.47;;;2.10;;
22357;SDS011;11346;50.150;8.150;2022-09-09T08:36:01;2.67;;;1.80;;
22357;SDS011;11346;50.150;8.150;2022-09-09T08:38:28;5.13;;;2.40;;
22357;SDS011;11346;50.150;8.150;2022-09-09T08:40:57;6.10;;;2.33;;
22357;SDS011;11346;50.150;8.150;2022-09-09T08:43:26;6.00;;;2.50;;
22357;SDS011;11346;50.150;8.150;2022-09-09T08:45:55;5.63;;;2.00;;
22357;SDS011;11346;50.150;8.150;2022-09-09T08:48:32;4.70;;;1.90;;
22357;SDS011;11346;50.150;8.150;2022-09-09T08:51:03;6.20;;;1.83;;
22357;SDS011;11346;50.150;8.150;2022-09-09T08:53:34;5.33;;;1.97;;
22357;SDS011;11346;50.150;8.150;2022-09-09T08:56:04;6.43;;;1.90;;
22357;SDS011;11346;50.150;8.150;2022-09-09T08:58:45;5.27;;;2.00;;
22357;SDS011;11346;50.150;8.150;2022-09-09T09:01:29;5.77;;;2.23;;
22357;SDS011;11346;50.150;8.150;2022-09-09T09:04:02;9.17;;;2.10;;
22357;SDS011;11346;50.150;8.150;2022-09-09T09:06:35;6.03;;;2.60;;
22357;SDS011;11346;50.150;8.150;2022-09-09T09:09:08;9.60;;;2.63;;
22357;SDS011;11346;50.150;8.150;2022-09-09T09:11:39;6.93;;;2.20;;
22357;SDS011;11346;50.150;8.150;2022-09-09T09:14:08;6.83;;;1.90;;
22357;SDS011;11346;50.150;8.150;2022-09-09T09:16:38;6.23;;;2.00;;
22357;SDS011;11346;50.150;8.150;2022-09-09T09:19:08;4.33;;;1.67;;
22357;SDS011;11346;50.150;8.150;2022-09-09T09:21:41;5.47;;;2.20;;
22357;SDS011;11346;50.150;8.150;2022-09-09T09:24:12;4.53;;;1.47;;
22357;SDS011;11346;50.150;8.150;2022-09-09T09:26:41;7.77;;;2.17;;
22357;SDS011;11346;50.150;8.150;2022-09-09T09:29:10;3.80;;;1.70;;
22357;SDS011;11346;50.150;8.150;2022-09-09T09:31:38;4.53;;;1.80;;
22357;SDS011;11346;50.150;8.150;2022-09-09T09:34:05;2.93;;;1.67;;
22357;SDS011;11346;50.150;8.150;2022-09-09T09:36:38;5.63;;;1.83;;
22357;SDS011;11346;50.150;8.150;2022-09-09T09:39:06;3.07;;;1.70;;
22357;SDS011;11346;50.150;8.150;2022-09-09T09:41:35;4.17;;;2.20;;
22357;SDS011;11346;50.150;8.150;2022-09-09T09:44:03;3.37;;;1.63;;
22357;SDS011;11346;50.150;8.150;2022-09-09T09:46:30;3.70;;;1.60;;
22357;SDS011;11346;50.150;8.150;2022-09-09T09:48:58;4.43;;;1.70;;
22357;SDS011;11346;50.150;8.150;2022-09-09T09:51:26;6.90;;;1.80;;
22357;SDS011;11346;50.150;8.150;2022-09-09T09:53:54;7.97;;;1.47;;
22357;SDS011;11346;50.150;8.150;2022-09-09T09:56:30;3.27;;;1.20;;
22357;SDS011;11346;50.150;8.150;2022-09-09T09:58:58;4.03;;;1.50;;
22357;SDS011;11346;50.150;8.150;2022-09-09T10:01:26;5.13;;;1.43;;
22357;SDS011;11346;50.150;8.150;2022-09-09T10:03:55;5.63;;;1.73;;
22357;SDS011;11346;50.150;8.150;2022-09-09T10:06:30;4.10;;;1.50;;
22357;SDS011;11346;50.150;8.150;2022-09-09T10:08:59;4.80;;;1.50;;
22357;SDS011;11346;50.150;8.150;2022-09-09T10:11:30;4.00;;;1.67;;
22357;SDS011;11346;50.150;8.150;2022-09-09T10:14:04;4.33;;;1.47;;
22357;SDS011;11346;50.150;8.150;2022-09-09T10:16:36;4.10;;;1.90;;
22357;SDS011;11346;50.150;8.150;2022-09-09T10:19:08;3.47;;;1.30;;
22357;SDS011;11346;50.150;8.150;2022-09-09T10:21:49;4.67;;;1.50;;
22357;SDS011;11346;50.150;8.150;2022-09-09T10:24:31;3.60;;;1.60;;
22357;SDS011;11346;50.150;8.150;2022-09-09T10:27:03;6.87;;;1.40;;
22357;SDS011;11346;50.150;8.150;2022-09-09T10:29:36;4.43;;;1.10;;
22357;SDS011;11346;50.150;8.150;2022-09-09T10:32:13;2.03;;;1.13;;
22357;SDS011;11346;50.150;8.150;2022-09-09T10:34:52;2.27;;;1.00;;
22357;SDS011;11346;50.150;8.150;2022-09-09T10:37:25;4.17;;;1.27;;
22357;SDS011;11346;50.150;8.150;2022-09-09T10:39:58;4.80;;;1.20;;
22357;SDS011;11346;50.150;8.150;2022-09-09T10:42:28;4.57;;;1.43;;
22357;SDS011;11346;50.150;8.150;2022-09-09T10:45:00;3.40;;;1.33;;
22357;SDS011;11346;50.150;8.150;2022-09-09T10:47:35;2.33;;;1.30;;
22357;SDS011;11346;50.150;8.150;2022-09-09T10:50:08;2.73;;;1.10;;
22357;SDS011;11346;50.150;8.150;2022-09-09T10:52:40;5.80;;;1.40;;
22357;SDS011;11346;50.150;8.150;2022-09-09T10:55:15;3.27;;;1.10;;
22357;SDS011;11346;50.150;8.150;2022-09-09T10:57:43;2.10;;;1.20;;
22357;SDS011;11346;50.150;8.150;2022-09-09T11:00:14;5.27;;;1.20;;
22357;SDS011;11346;50.150;8.150;2022-09-09T11:02:42;3.93;;;1.20;;
22357;SDS011;11346;50.150;8.150;2022-09-09T11:05:10;7.67;;;1.20;;
22357;SDS011;11346;50.150;8.150;2022-09-09T11:07:42;4.13;;;1.13;;
22357;SDS011;11346;50.150;8.150;2022-09-09T11:10:17;2.27;;;1.10;;
22357;SDS011;11346;50.150;8.150;2022-09-09T11:12:48;4.30;;;1.20;;
22357;SDS011;11346;50.150;8.150;2022-09-09T11:15:17;3.03;;;1.10;;
22357;SDS011;11346;50.150;8.150;2022-09-09T11:17:46;7.00;;;1.20;;
22357;SDS011;11346;50.150;8.150;2022-09-09T11:20:15;3.60;;;1.30;;
22357;SDS011;11346;50.150;8.150;2022-09-09T11:22:44;2.60;;;0.90;;
22357;SDS011;11346;50.150;8.150;2022-09-09T11:25:14;3.03;;;1.23;;
22357;SDS011;11346;50.150;8.150;2022-09-09T11:27:44;1.13;;;0.90;;
22357;SDS011;11346;50.150;8.150;2022-09-09T11:30:16;1.80;;;0.97;;
22357;SDS011;11346;50.150;8.150;2022-09-09T11:32:53;3.53;;;1.03;;
22357;SDS011;11346;50.150;8.150;2022-09-09T11:35:26;2.17;;;1.30;;
22357;SDS011;11346;50.150;8.150;2022-09-09T11:38:02;4.67;;;1.30;;
22357;SDS011;11346;50.150;8.150;2022-09-09T11:40:34;2.83;;;1.30;;
22357;SDS011;11346;50.150;8.150;2022-09-09T11:43:03;4.97;;;1.50;;
22357;SDS011;11346;50.150;8.150;2022-09-09T11:45:32;3.43;;;1.17;;
22357;SDS011;11346;50.150;8.150;2022-09-09T11:48:00;4.57;;;1.20;;
22357;SDS011;11346;50.150;8.150;2022-09-09T11:50:31;4.57;;;1.17;;
22357;SDS011;11346;50.150;8.150;2022-09-09T11:55:46;2.60;;;1.20;;
22357;SDS011;11346;50.150;8.150;2022-09-09T11:58:17;5.70;;;1.47;;
22357;SDS011;11346;50.150;8.150;2022-09-09T12:00:45;5.10;;;1.20;;
22357;SDS011;11346;50.150;8.150;2022-09-09T12:05:55;4.40;;;1.30;;
22357;SDS011;11346;50.150;8.150;2022-09-09T12:08:24;5.40;;;1.90;;
22357;SDS011;11346;50.150;8.150;2022-09-09T12:10:54;2.87;;;0.97;;
22357;SDS011;11346;50.150;8.150;2022-09-09T12:13:24;3.70;;;1.03;;
22357;SDS011;11346;50.150;8.150;2022-09-09T12:15:52;6.77;;;0.90;;
22357;SDS011;11346;50.150;8.150;2022-09-09T12:18:21;2.93;;;1.27;;
22357;SDS011;11346;50.150;8.150;2022-09-09T12:20:52;4.97;;;1.37;;
22357;SDS011;11346;50.150;8.150;2022-09-09T12:23:32;5.13;;;1.20;;
22357;SDS011;11346;50.150;8.150;2022-09-09T12:26:21;6.33;;;1.40;;
22357;SDS011;11346;50.150;8.150;2022-09-09T12:28:55;3.63;;;1.20;;
22357;SDS011;11346;50.150;8.150;2022-09-09T12:31:24;3.00;;;1.20;;
22357;SDS011;11346;50.150;8.150;2022-09-09T12:33:53;4.60;;;1.40;;
22357;SDS011;11346;50.150;8.150;2022-09-09T12:36:21;3.33;;;1.20;;
22357;SDS011;11346;50.150;8.150;2022-09-09T12:38:48;2.70;;;1.20;;
22357;SDS011;11346;50.150;8.150;2022-09-09T12:41:20;4.30;;;1.37;;
22357;SDS011;11346;50.150;8.150;2022-09-09T12:43:48;2.63;;;1.10;;
22357;SDS011;11346;50.150;8.150;2022-09-09T12:46:20;2.57;;;0.97;;
22357;SDS011;11346;50.150;8.150;2022-09-09T12:48:48;3.77;;;1.20;;
22357;SDS011;11346;50.150;8.150;2022-09-09T12:51:17;4.40;;;1.43;;
22357;SDS011;11346;50.150;8.150;2022-09-09T12:53:45;2.80;;;1.10;;
22357;SDS011;11346;50.150;8.150;2022-09-09T12:56:18;1.97;;;0.90;;
22357;SDS011;11346;50.150;8.150;2022-09-09T12:58:46;2.97;;;1.03;;
22357;SDS011;11346;50.150;8.150;2022-09-09T13:01:20;1.63;;;0.90;;
22357;SDS011;11346;50.150;8.150;2022-09-09T13:03:47;3.20;;;0.80;;
22357;SDS011;11346;50.150;8.150;2022-09-09T13:06:18;2.40;;;0.90;;
22357;SDS011;11346;50.150;8.150;2022-09-09T13:08:47;1.50;;;0.77;;
22357;SDS011;11346;50.150;8.150;2022-09-09T13:11:15;1.77;;;0.90;;
22357;SDS011;11346;50.150;8.150;2022-09-09T13:13:43;2.40;;;0.80;;
22357;SDS011;11346;50.150;8.150;2022-09-09T13:16:19;2.87;;;0.90;;
22357;SDS011;11346;50.150;8.150;2022-09-09T13:18:47;1.93;;;0.90;;
22357;SDS011;11346;50.150;8.150;2022-09-09T13:21:14;1.87;;;0.73;;
22357;SDS011;11346;50.150;8.150;2022-09-09T13:23:42;1.23;;;0.80;;
22357;SDS011;11346;50.150;8.150;2022-09-09T13:26:22;3.13;;;0.90;;
22357;SDS011;11346;50.150;8.150;2022-09-09T13:28:49;3.13;;;1.27;;
22357;SDS011;11346;50.150;8.150;2022-09-09T13:31:23;2.93;;;0.90;;
22357;SDS011;11346;50.150;8.150;2022-09-09T13:33:52;0.90;;;0.90;;
22357;SDS011;11346;50.150;8.150;2022-09-09T13:36:27;2.33;;;1.00;;
22357;SDS011;11346;50.150;8.150;2022-09-09T13:38:55;2.30;;;1.00;;
22357;SDS011;11346;50.150;8.150;2022-09-09T13:41:24;3.37;;;0.90;;
22357;SDS011;11346;50.150;8.150;2022-09-09T13:43:52;2.30;;;1.20;;
22357;SDS011;11346;50.150;8.150;2022-09-09T13:46:30;1.27;;;1.03;;
22357;SDS011;11346;50.150;8.150;2022-09-09T13:48:58;4.87;;;1.50;;
22357;SDS011;11346;50.150;8.150;2022-09-09T13:51:28;3.93;;;1.30;;
22357;SDS011;11346;50.150;8.150;2022-09-09T13:53:56;2.40;;;1.20;;
22357;SDS011;11346;50.150;8.150;2022-09-09T13:56:25;6.33;;;1.23;;
22357;SDS011;11346;50.150;8.150;2022-09-09T13:58:52;2.13;;;1.13;;
22357;SDS011;11346;50.150;8.150;2022-09-09T14:01:19;2.43;;;1.13;;
22357;SDS011;11346;50.150;8.150;2022-09-09T14:03:47;2.43;;;1.17;;
22357;SDS011;11346;50.150;8.150;2022-09-09T14:06:15;5.13;;;1.40;;
22357;SDS011;11346;50.150;8.150;2022-09-09T14:08:43;6.30;;;1.30;;
22357;SDS011;11346;50.150;8.150;2022-09-09T14:11:12;6.93;;;1.87;;
22357;SDS011;11346;50.150;8.150;2022-09-09T14:13:39;4.63;;;1.53;;
22357;SDS011;11346;50.150;8.150;2022-09-09T14:16:06;8.37;;;1.67;;
22357;SDS011;11346;50.150;8.150;2022-09-09T14:18:34;4.67;;;1.57;;
22357;SDS011;11346;50.150;8.150;2022-09-09T14:21:04;1.23;;;1.13;;
22357;SDS011;11346;50.150;8.150;2022-09-09T14:23:31;3.07;;;1.10;;
22357;SDS011;11346;50.150;8.150;2022-09-09T14:25:58;5.67;;;1.30;;
22357;SDS011;11346;50.150;8.150;2022-09-09T14:28:25;6.00;;;1.57;;
22357;SDS011;11346;50.150;8.150;2022-09-09T14:30:53;1.63;;;1.07;;
22357;SDS011;11346;50.150;8.150;2022-09-09T14:33:20;3.50;;;1.40;;
22357;SDS011;11346;50.150;8.150;2022-09-09T14:35:47;4.43;;;1.73;;
22357;SDS011;11346;50.150;8.150;2022-09-09T14:38:15;2.10;;;1.13;;
22357;SDS011;11346;50.150;8.150;2022-09-09T14:40:44;4.27;;;1.10;;
22357;SDS011;11346;50.150;8.150;2022-09-09T14:43:12;3.47;;;1.07;;
22357;SDS011;11346;50.150;8.150;2022-09-09T14:45:39;5.87;;;1.40;;
22357;SDS011;11346;50.150;8.150;2022-09-09T14:48:08;3.40;;;1.20;;
22357;SDS011;11346;50.150;8.150;2022-09-09T14:50:35;4.73;;;1.07;;
22357;SDS011;11346;50.150;8.150;2022-09-09T14:53:05;2.17;;;1.17;;
22357;SDS011;11346;50.150;8.150;2022-09-09T14:55:33;2.93;;;1.30;;
22357;SDS011;11346;50.150;8.150;2022-09-09T14:58:00;2.60;;;1.07;;
22357;SDS011;11346;50.150;8.150;2022-09-09T15:00:27;4.27;;;1.20;;
22357;SDS011;11346;50.150;8.150;2022-09-09T15:02:54;5.63;;;1.60;;
22357;SDS011;11346;50.150;8.150;2022-09-09T15:05:22;4.50;;;1.30;;
22357;SDS011;11346;50.150;8.150;2022-09-09T15:07:50;3.20;;;1.20;;